createdAt,value
2023-02-14T00:00:25.158Z,30.43
2023-02-14T00:02:54.375Z,31.80
2023-02-14T00:05:22.699Z,34.10
2023-02-14T00:07:50.981Z,33.70
2023-02-14T00:10:25.770Z,32.33
2023-02-14T00:12:56.844Z,30.53
2023-02-14T00:15:24.995Z,33.87
2023-02-14T00:17:54.767Z,36.13
2023-02-14T00:20:23.722Z,31.23
2023-02-14T00:22:52.184Z,34.13
2023-02-14T00:25:20.330Z,35.17
2023-02-14T00:27:48.906Z,33.67
2023-02-14T00:30:20.438Z,33.73
2023-02-14T00:32:48.756Z,33.87
2023-02-14T00:35:16.889Z,31.60
2023-02-14T00:37:47.587Z,33.73
2023-02-14T00:40:17.903Z,33.40
2023-02-14T00:42:46.373Z,33.13
2023-02-14T00:45:14.746Z,36.23
2023-02-14T00:47:44.427Z,35.33
2023-02-14T00:50:20.077Z,31.93
2023-02-14T00:52:52.314Z,32.43
2023-02-14T00:55:20.750Z,32.80
2023-02-14T00:57:49.278Z,30.17
2023-02-14T01:00:18.254Z,35.17
2023-02-14T01:02:48.113Z,33.13
2023-02-14T01:05:16.371Z,35.30
2023-02-14T01:07:46.275Z,32.87
2023-02-14T01:10:14.848Z,30.80
2023-02-14T01:12:43.276Z,33.47
2023-02-14T01:15:13.200Z,34.07
2023-02-14T01:17:41.744Z,33.57
2023-02-14T01:20:12.443Z,34.00
2023-02-14T01:22:40.870Z,37.77
2023-02-14T01:25:15.747Z,31.73
2023-02-14T01:27:44.174Z,32.70
2023-02-14T01:30:15.083Z,27.57
2023-02-14T01:32:43.377Z,33.43
2023-02-14T01:35:13.081Z,31.47
2023-02-14T01:37:41.802Z,32.87
2023-02-14T01:40:14.101Z,34.90
2023-02-14T01:42:42.862Z,34.00
2023-02-14T01:45:19.016Z,30.03
2023-02-14T01:47:53.115Z,32.33
2023-02-14T01:50:31.130Z,29.53
2023-02-14T01:53:02.988Z,31.67
2023-02-14T01:55:37.340Z,34.10
2023-02-14T01:58:28.920Z,34.57
2023-02-14T02:01:02.026Z,29.27
2023-02-14T02:03:52.836Z,32.60
2023-02-14T02:06:27.263Z,29.53
2023-02-14T02:09:07.090Z,30.57
2023-02-14T02:11:36.260Z,28.47
2023-02-14T02:14:28.198Z,35.03
2023-02-14T02:17:23.474Z,32.40
2023-02-14T02:20:22.805Z,29.97
2023-02-14T02:23:12.227Z,29.40
2023-02-14T02:26:19.918Z,29.60
2023-02-14T02:29:29.575Z,31.63
2023-02-14T02:32:21.075Z,35.63
2023-02-14T02:35:24.495Z,34.03
2023-02-14T02:38:08.307Z,28.77
2023-02-14T02:40:48.080Z,32.97
2023-02-14T02:43:36.172Z,32.37
2023-02-14T02:46:24.579Z,29.80
2023-02-14T02:48:59.767Z,32.50
2023-02-14T02:51:55.438Z,32.17
2023-02-14T02:54:35.087Z,29.13
2023-02-14T02:57:07.986Z,33.17
2023-02-14T02:59:44.097Z,32.00
2023-02-14T03:02:23.852Z,31.57
2023-02-14T03:04:53.932Z,31.63
2023-02-14T03:07:39.564Z,29.77
2023-02-14T03:10:13.315Z,30.13
2023-02-14T03:13:11.913Z,32.03
2023-02-14T03:15:55.363Z,33.57
2023-02-14T03:18:40.764Z,33.93
2023-02-14T03:21:19.022Z,29.70
2023-02-14T03:23:57.286Z,29.20
2023-02-14T03:26:35.153Z,29.47
2023-02-14T03:29:14.115Z,31.40
2023-02-14T03:32:09.929Z,29.60
2023-02-14T03:34:46.990Z,31.07
2023-02-14T03:37:22.580Z,34.50
2023-02-14T03:40:01.158Z,30.37
2023-02-14T03:42:38.453Z,32.27
2023-02-14T03:45:11.683Z,32.47
2023-02-14T03:47:43.854Z,33.07
2023-02-14T03:50:18.891Z,36.67
2023-02-14T03:52:49.007Z,37.03
2023-02-14T03:55:25.816Z,34.33
2023-02-14T03:58:01.178Z,36.50
2023-02-14T04:00:32.055Z,38.47
2023-02-14T04:03:06.014Z,34.67
2023-02-14T04:05:34.491Z,35.37
2023-02-14T04:08:06.171Z,37.67
2023-02-14T04:10:36.140Z,39.63
2023-02-14T04:13:05.781Z,35.23
2023-02-14T04:15:34.396Z,36.60
2023-02-14T04:18:20.099Z,34.03
2023-02-14T04:20:48.870Z,33.03
2023-02-14T04:23:19.054Z,38.97
2023-02-14T04:25:49.040Z,36.77
2023-02-14T04:28:22.090Z,36.03
2023-02-14T04:30:50.836Z,35.37
2023-02-14T04:33:18.878Z,32.70
2023-02-14T04:35:48.330Z,36.13
2023-02-14T04:38:16.828Z,34.97
2023-02-14T04:40:45.081Z,36.40
2023-02-14T04:43:15.080Z,36.10
2023-02-14T04:45:43.565Z,33.10
2023-02-14T04:48:12.036Z,37.87
2023-02-14T04:50:43.118Z,35.13
2023-02-14T04:53:15.012Z,34.10
2023-02-14T04:55:43.762Z,34.13
2023-02-14T04:58:13.908Z,31.87
2023-02-14T05:00:43.804Z,33.83
2023-02-14T05:03:12.102Z,37.50
2023-02-14T05:05:40.621Z,34.57
2023-02-14T05:08:09.130Z,32.20
2023-02-14T05:10:39.329Z,35.60
2023-02-14T05:13:32.048Z,38.13
2023-02-14T05:16:01.960Z,35.43
2023-02-14T05:18:32.129Z,35.97
2023-02-14T05:21:01.087Z,36.43
2023-02-14T05:23:29.704Z,34.63
2023-02-14T05:25:58.191Z,42.00
2023-02-14T05:28:26.563Z,35.50
2023-02-14T05:30:57.189Z,38.70
2023-02-14T05:33:28.012Z,34.50
2023-02-14T05:35:56.799Z,35.33
2023-02-14T05:38:28.624Z,37.43
2023-02-14T05:41:00.232Z,35.67
2023-02-14T05:43:32.635Z,38.73
2023-02-14T05:46:01.644Z,38.07
2023-02-14T05:48:32.211Z,42.73
2023-02-14T05:51:05.184Z,35.20
2023-02-14T05:53:33.296Z,35.60
2023-02-14T05:56:01.782Z,38.77
2023-02-14T05:58:30.112Z,36.37
2023-02-14T06:00:59.238Z,37.47
2023-02-14T06:03:27.665Z,35.20
2023-02-14T06:05:57.285Z,34.07
2023-02-14T06:08:25.423Z,36.27
2023-02-14T06:10:53.557Z,36.27
2023-02-14T06:13:21.710Z,38.30
2023-02-14T06:15:49.851Z,39.03
2023-02-14T06:18:17.992Z,38.73
2023-02-14T06:20:46.140Z,35.23
2023-02-14T06:23:15.638Z,39.27
2023-02-14T06:25:54.552Z,37.07
2023-02-14T06:28:23.037Z,37.80
2023-02-14T06:30:51.510Z,37.57
2023-02-14T06:33:19.566Z,36.30
2023-02-14T06:35:48.286Z,41.57
2023-02-14T06:38:18.067Z,38.23
2023-02-14T06:40:46.129Z,34.20
2023-02-14T06:43:14.433Z,37.97
2023-02-14T06:45:43.884Z,42.27
2023-02-14T06:48:12.108Z,35.60
2023-02-14T06:50:40.180Z,44.03
2023-02-14T06:53:08.658Z,34.83
2023-02-14T06:55:38.442Z,37.03
2023-02-14T06:58:07.001Z,40.63
2023-02-14T07:00:35.228Z,37.90
2023-02-14T07:03:03.624Z,40.30
2023-02-14T07:05:32.144Z,39.73
2023-02-14T07:08:00.245Z,36.23
2023-02-14T07:10:28.429Z,39.83
2023-02-14T07:12:58.620Z,41.73
2023-02-14T07:15:27.309Z,37.43
2023-02-14T07:17:56.987Z,40.53
2023-02-14T07:20:26.003Z,38.47
2023-02-14T07:23:14.086Z,41.60
2023-02-14T07:25:42.790Z,42.17
2023-02-14T07:28:12.941Z,41.10
2023-02-14T07:30:41.245Z,40.57
2023-02-14T07:33:09.445Z,44.47
2023-02-14T07:35:37.727Z,43.20
2023-02-14T07:38:05.941Z,46.33
2023-02-14T07:40:36.931Z,45.43
2023-02-14T07:43:05.639Z,48.70
2023-02-14T07:45:40.585Z,48.57
2023-02-14T07:48:31.411Z,51.37
2023-02-14T07:51:01.770Z,53.43
2023-02-14T07:53:30.258Z,54.67
2023-02-14T07:55:58.522Z,59.43
2023-02-14T07:58:26.615Z,53.37
2023-02-14T08:00:56.051Z,54.53
2023-02-14T08:03:24.268Z,56.80
2023-02-14T08:05:57.322Z,61.60
2023-02-14T08:08:40.861Z,61.97
2023-02-14T08:11:36.009Z,61.30
2023-02-14T08:14:04.805Z,57.17
2023-02-14T08:16:39.633Z,60.97
2023-02-14T08:19:08.016Z,60.30
2023-02-14T08:21:36.093Z,48.13
2023-02-14T08:24:04.257Z,55.07
2023-02-14T08:26:32.642Z,51.40
2023-02-14T08:29:02.355Z,60.03
2023-02-14T08:31:36.069Z,54.00
2023-02-14T08:34:05.094Z,49.87
2023-02-14T08:36:33.318Z,49.97
2023-02-14T08:39:01.654Z,45.83
2023-02-14T08:41:29.762Z,59.33
2023-02-14T08:43:57.973Z,53.30
2023-02-14T08:46:26.232Z,56.13
2023-02-14T08:48:58.459Z,54.47
2023-02-14T08:51:27.005Z,55.73
2023-02-14T08:53:56.061Z,56.70
2023-02-14T08:56:24.933Z,50.70
2023-02-14T08:58:54.591Z,51.93
2023-02-14T09:01:22.862Z,49.73
2023-02-14T09:03:51.019Z,52.33
2023-02-14T09:06:20.927Z,52.40
2023-02-14T09:08:49.194Z,52.53
2023-02-14T09:11:21.997Z,51.53
2023-02-14T09:13:51.521Z,51.67
2023-02-14T09:16:20.449Z,52.00
2023-02-14T09:18:49.653Z,53.90
2023-02-14T09:21:21.020Z,52.10
2023-02-14T09:23:49.254Z,48.23
2023-02-14T09:26:18.183Z,48.70
2023-02-14T09:28:46.432Z,49.10
2023-02-14T09:31:16.657Z,52.23
2023-02-14T09:33:46.030Z,49.90
2023-02-14T09:36:16.228Z,56.77
2023-02-14T09:38:45.738Z,49.33
2023-02-14T09:41:34.360Z,46.53
2023-02-14T09:44:06.492Z,55.87
2023-02-14T09:46:44.177Z,46.80
2023-02-14T09:49:16.851Z,50.03
2023-02-14T09:51:51.664Z,51.40
2023-02-14T09:54:26.316Z,49.30
2023-02-14T09:57:02.665Z,49.23
2023-02-14T09:59:36.906Z,48.23
2023-02-14T10:02:24.896Z,49.53
2023-02-14T10:05:05.874Z,49.70
2023-02-14T10:07:41.647Z,50.00
2023-02-14T10:10:16.164Z,50.07
2023-02-14T10:12:48.640Z,49.97
2023-02-14T10:15:21.964Z,49.93
2023-02-14T10:17:55.449Z,53.30
2023-02-14T10:20:27.480Z,47.07
2023-02-14T10:23:03.480Z,54.07
2023-02-14T10:25:40.956Z,55.23
2023-02-14T10:28:16.734Z,49.40
2023-02-14T10:30:53.577Z,53.07
2023-02-14T10:33:23.683Z,53.67
2023-02-14T10:35:55.991Z,51.70
2023-02-14T10:38:39.048Z,49.60
2023-02-14T10:41:21.751Z,52.57
2023-02-14T10:44:00.665Z,49.73
2023-02-14T10:46:38.384Z,51.83
2023-02-14T10:49:23.343Z,49.80
2023-02-14T10:51:56.923Z,51.53
2023-02-14T10:54:28.512Z,49.33
2023-02-14T10:57:02.055Z,56.00
2023-02-14T10:59:36.462Z,49.60
2023-02-14T11:02:06.841Z,47.30
2023-02-14T11:04:41.691Z,46.47
2023-02-14T11:07:14.425Z,49.60
2023-02-14T11:09:42.464Z,49.47
2023-02-14T11:12:12.255Z,47.33
2023-02-14T11:14:41.813Z,48.63
2023-02-14T11:17:29.474Z,48.43
2023-02-14T11:20:03.202Z,49.03
2023-02-14T11:22:33.381Z,44.97
2023-02-14T11:25:06.365Z,46.67
2023-02-14T11:27:37.874Z,40.67
2023-02-14T11:30:20.123Z,44.53
2023-02-14T11:32:55.139Z,48.30
2023-02-14T11:35:27.808Z,47.87
2023-02-14T11:37:57.614Z,45.70
2023-02-14T11:40:30.224Z,50.10
2023-02-14T11:43:17.599Z,47.00
2023-02-14T11:45:48.061Z,49.43
2023-02-14T11:48:36.600Z,55.20
2023-02-14T11:51:10.181Z,50.60
2023-02-14T11:53:46.083Z,50.30
2023-02-14T11:56:15.253Z,45.17
2023-02-14T11:58:53.002Z,47.97
2023-02-14T12:01:26.627Z,48.57
2023-02-14T12:03:58.293Z,46.53
2023-02-14T12:06:28.641Z,47.30
2023-02-14T12:09:25.088Z,43.90
2023-02-14T12:11:56.092Z,46.07
2023-02-14T12:14:29.568Z,43.17
2023-02-14T12:17:03.856Z,45.67
2023-02-14T12:19:41.513Z,46.63
2023-02-14T12:22:17.151Z,49.83
2023-02-14T12:24:52.002Z,46.10
2023-02-14T12:27:24.000Z,44.30
2023-02-14T12:29:58.845Z,49.60
2023-02-14T12:32:30.198Z,43.90
2023-02-14T12:35:04.215Z,45.27
2023-02-14T12:37:41.187Z,41.83
2023-02-14T12:40:21.170Z,47.70
2023-02-14T12:43:02.138Z,43.17
2023-02-14T12:45:53.239Z,46.77
2023-02-14T12:48:32.192Z,47.80
2023-02-14T12:51:06.221Z,46.10
2023-02-14T12:54:00.049Z,42.27
2023-02-14T12:56:42.341Z,47.43
2023-02-14T12:59:25.978Z,42.53
2023-02-14T13:02:44.544Z,40.47
2023-02-14T13:05:21.928Z,42.83
2023-02-14T13:08:03.147Z,46.67
2023-02-14T13:10:56.177Z,40.13
2023-02-14T13:13:34.241Z,43.27
2023-02-14T13:16:12.822Z,41.07
2023-02-14T13:18:48.178Z,45.70
2023-02-14T13:21:23.512Z,43.67
2023-02-14T13:23:55.764Z,48.77
2023-02-14T13:26:27.151Z,40.70
2023-02-14T13:29:00.402Z,46.07
2023-02-14T13:31:28.748Z,45.33
2023-02-14T13:34:01.474Z,49.67
2023-02-14T13:36:32.623Z,45.77
2023-02-14T13:39:01.175Z,45.33
2023-02-14T13:41:30.386Z,50.07
2023-02-14T13:44:02.662Z,42.30
2023-02-14T13:46:52.352Z,44.63
2023-02-14T13:49:29.110Z,46.30
2023-02-14T13:52:01.318Z,44.47
2023-02-14T13:54:42.710Z,45.63
2023-02-14T13:57:34.114Z,44.63
2023-02-14T14:00:36.573Z,44.23
2023-02-14T14:03:06.333Z,43.57
2023-02-14T14:05:49.041Z,47.77
2023-02-14T14:08:54.366Z,45.07
2023-02-14T14:12:01.198Z,44.67
2023-02-14T14:14:39.954Z,48.27
2023-02-14T14:17:27.901Z,48.33
2023-02-14T14:19:57.954Z,46.13
2023-02-14T14:22:26.967Z,43.23
2023-02-14T14:25:00.713Z,50.33
2023-02-14T14:27:33.880Z,47.23
2023-02-14T17:17:39.079Z,60.33
2023-02-14T17:20:09.522Z,175.37
2023-02-14T17:22:38.618Z,118.93
2023-02-14T17:25:07.468Z,89.43
2023-02-14T17:27:35.933Z,53.83
2023-02-14T17:30:04.160Z,60.07
2023-02-14T17:32:32.175Z,56.80
2023-02-14T17:35:03.485Z,55.40
2023-02-14T17:37:32.921Z,53.60
2023-02-14T17:40:00.829Z,57.53
2023-02-14T17:42:28.852Z,54.50
2023-02-14T17:44:56.997Z,61.17
2023-02-14T17:47:24.962Z,57.90
2023-02-14T17:49:52.937Z,53.53
2023-02-14T17:52:24.259Z,52.57
2023-02-14T17:54:52.364Z,57.57
2023-02-14T17:57:20.792Z,54.50
2023-02-14T17:59:49.585Z,53.27
2023-02-14T18:02:17.512Z,55.03
2023-02-14T18:04:45.437Z,56.33
2023-02-14T18:07:13.719Z,58.60
2023-02-14T18:09:43.153Z,58.50
2023-02-14T18:12:14.825Z,63.40
2023-02-14T18:14:46.048Z,58.87
2023-02-14T18:17:14.583Z,62.03
2023-02-14T18:19:42.893Z,58.73
2023-02-14T18:22:10.816Z,63.83
2023-02-14T18:24:38.743Z,61.67
2023-02-14T18:27:08.330Z,58.67
2023-02-14T18:29:39.383Z,57.63
2023-02-14T18:32:07.366Z,60.87
2023-02-14T18:34:38.004Z,58.00
2023-02-14T18:37:06.203Z,61.10
2023-02-14T18:39:34.494Z,60.13
2023-02-14T18:42:02.483Z,63.43
2023-02-14T18:44:33.385Z,57.03
2023-02-14T18:47:02.658Z,59.80
2023-02-14T18:49:31.342Z,59.57
2023-02-14T18:51:59.459Z,59.67
2023-02-14T18:54:27.584Z,65.23
2023-02-14T18:56:55.891Z,55.50
2023-02-14T18:59:25.125Z,61.77
2023-02-14T19:01:54.885Z,60.57
2023-02-14T19:04:23.204Z,60.40
2023-02-14T19:06:51.357Z,57.13
2023-02-14T19:09:19.441Z,62.60
2023-02-14T19:11:47.906Z,66.87
2023-02-14T19:14:16.508Z,64.27
2023-02-14T19:16:50.414Z,65.87
2023-02-14T19:19:20.548Z,58.93
2023-02-14T19:21:48.699Z,62.93
2023-02-14T19:24:17.885Z,72.30
2023-02-14T19:26:46.239Z,64.83
2023-02-14T19:29:16.487Z,62.33
2023-02-14T19:31:48.247Z,63.13
2023-02-14T19:34:20.306Z,71.43
2023-02-14T19:37:08.269Z,66.67
2023-02-14T19:39:36.345Z,67.50
2023-02-14T19:42:05.209Z,61.87
2023-02-14T19:44:33.508Z,68.23
2023-02-14T19:47:05.896Z,68.00
2023-02-14T19:49:42.032Z,64.30
2023-02-14T19:52:25.674Z,72.53
2023-02-14T19:54:55.503Z,73.77
2023-02-14T19:57:23.871Z,74.17
2023-02-14T19:59:52.328Z,68.10
2023-02-14T20:02:22.395Z,66.97
2023-02-14T20:04:53.619Z,78.93
2023-02-14T20:07:22.067Z,75.67
2023-02-14T20:09:50.900Z,68.47
2023-02-14T20:12:18.920Z,74.70
2023-02-14T20:14:51.569Z,73.00
2023-02-14T20:17:20.509Z,76.40
2023-02-14T20:19:48.930Z,75.57
2023-02-14T20:22:20.345Z,81.90
2023-02-14T20:24:48.535Z,79.43
2023-02-14T20:27:17.058Z,78.47
2023-02-14T20:29:45.740Z,90.17
2023-02-14T20:32:16.964Z,88.63
2023-02-14T20:34:45.908Z,100.80
2023-02-14T20:37:15.494Z,95.57
2023-02-14T20:39:45.344Z,83.43
2023-02-14T20:42:13.427Z,83.30
2023-02-14T20:44:44.318Z,85.27
2023-02-14T20:47:12.707Z,81.13
2023-02-14T20:49:44.682Z,85.43
2023-02-14T20:52:13.116Z,84.27
2023-02-14T20:54:41.373Z,123.00
2023-02-14T20:57:10.681Z,96.33
2023-02-14T20:59:44.288Z,101.40
2023-02-14T21:02:12.908Z,99.23
2023-02-14T21:04:41.044Z,93.00
2023-02-14T21:07:10.256Z,89.43
2023-02-14T21:09:39.453Z,89.30
2023-02-14T21:12:08.584Z,86.97
2023-02-14T21:14:38.284Z,88.57
2023-02-14T21:17:06.372Z,79.23
2023-02-14T21:19:34.701Z,85.87
2023-02-14T21:22:23.177Z,78.40
2023-02-14T21:24:51.465Z,83.40
2023-02-14T21:27:19.558Z,82.50
2023-02-14T21:29:48.946Z,82.57
2023-02-14T21:32:17.021Z,80.43
2023-02-14T21:34:45.328Z,80.40
2023-02-14T21:37:13.440Z,82.77
2023-02-14T21:39:41.647Z,84.37
2023-02-14T21:42:11.924Z,92.73
2023-02-14T21:44:58.386Z,91.77
2023-02-14T21:47:27.877Z,96.53
2023-02-14T21:50:13.439Z,94.90
2023-02-14T21:52:41.745Z,81.47
2023-02-14T21:55:10.247Z,84.90
2023-02-14T21:57:38.458Z,86.13
2023-02-14T22:00:07.850Z,81.67
2023-02-14T22:02:41.784Z,72.67
2023-02-14T22:05:09.927Z,77.17
2023-02-14T22:07:38.355Z,74.57
2023-02-14T22:10:07.424Z,72.83
2023-02-14T22:12:35.491Z,76.37
2023-02-14T22:15:03.450Z,72.90
2023-02-14T22:17:37.768Z,75.90
2023-02-14T22:20:10.224Z,76.10
2023-02-14T22:22:38.566Z,78.43
2023-02-14T22:25:07.465Z,76.40
2023-02-14T22:27:39.995Z,77.83
2023-02-14T22:30:10.379Z,75.43
2023-02-14T22:32:38.587Z,73.10
2023-02-14T22:35:08.645Z,69.13
2023-02-14T22:37:36.683Z,81.13
2023-02-14T22:40:05.139Z,70.73
2023-02-14T22:42:33.450Z,75.80
2023-02-14T22:45:01.530Z,72.83
2023-02-14T22:47:29.513Z,70.90
2023-02-14T22:50:00.010Z,72.03
2023-02-14T22:52:30.167Z,72.77
2023-02-14T22:54:59.866Z,77.53
2023-02-14T22:57:27.876Z,71.47
2023-02-14T22:59:55.842Z,70.30
2023-02-14T23:02:23.855Z,74.83
2023-02-14T23:04:52.009Z,70.47
2023-02-14T23:07:19.922Z,72.03
2023-02-14T23:09:50.333Z,77.57
2023-02-14T23:12:42.131Z,67.77
2023-02-14T23:15:28.346Z,68.17
2023-02-14T23:18:14.163Z,70.70
2023-02-14T23:20:59.842Z,78.77
2023-02-14T23:23:31.778Z,72.03
2023-02-14T23:26:01.625Z,73.63
2023-02-14T23:28:29.830Z,75.53
2023-02-14T23:31:02.562Z,72.63
2023-02-14T23:33:30.539Z,70.10
2023-02-14T23:35:58.655Z,73.77
2023-02-14T23:38:26.693Z,72.97
2023-02-14T23:41:12.056Z,72.77
2023-02-14T23:43:41.787Z,72.13
2023-02-14T23:46:09.741Z,70.67
2023-02-14T23:48:37.728Z,72.43
2023-02-14T23:51:05.929Z,75.03
2023-02-14T23:53:36.224Z,75.40
2023-02-14T23:56:04.458Z,75.27
2023-02-14T23:58:32.552Z,73.27
